createdAt,value
2016-08-13T00:00:50.889Z,0
2016-08-13T00:01:50.898Z,0
2016-08-13T00:02:49.158Z,0
2016-08-13T00:03:48.807Z,0
2016-08-13T00:04:49.520Z,0
2016-08-13T00:05:51.091Z,0
2016-08-13T00:06:49.997Z,0
2016-08-13T00:07:49.447Z,0
2016-08-13T00:08:48.712Z,0
2016-08-13T00:09:51.305Z,0
2016-08-13T00:10:50.106Z,0
2016-08-13T00:11:49.271Z,0
2016-08-13T00:12:50.826Z,0
2016-08-13T00:13:50.102Z,0
2016-08-13T00:14:50.070Z,0
2016-08-13T00:15:50.143Z,0
2016-08-13T00:16:49.581Z,0
2016-08-13T00:17:48.698Z,0
2016-08-13T00:18:50.216Z,0
2016-08-13T00:19:50.777Z,0
2016-08-13T00:20:50.334Z,0
2016-08-13T00:21:48.738Z,0
2016-08-13T00:22:49.450Z,0
2016-08-13T00:23:51.068Z,0
2016-08-13T00:24:50.150Z,0
2016-08-13T00:25:50.131Z,0
2016-08-13T00:26:50.109Z,0
2016-08-13T00:27:48.811Z,0
2016-08-13T00:28:50.922Z,0
2016-08-13T00:29:50.895Z,0
2016-08-13T00:30:50.480Z,0
2016-08-13T00:31:50.984Z,0
2016-08-13T00:32:50.163Z,0
2016-08-13T00:33:50.428Z,0
2016-08-13T00:34:50.236Z,0
2016-08-13T00:35:51.007Z,0
2016-08-13T00:36:50.418Z,0
2016-08-13T00:37:50.395Z,0
2016-08-13T00:38:51.160Z,0
2016-08-13T00:39:49.611Z,0
2016-08-13T00:40:50.890Z,0
2016-08-13T00:41:48.901Z,0
2016-08-13T00:42:50.107Z,0
2016-08-13T00:43:51.151Z,0
2016-08-13T00:44:52.189Z,0
2016-08-13T00:45:50.982Z,0
2016-08-13T00:46:49.502Z,0
2016-08-13T00:47:49.587Z,0
2016-08-13T00:48:50.278Z,0
2016-08-13T00:49:49.571Z,0
2016-08-13T00:50:50.511Z,0
2016-08-13T00:51:49.608Z,0
2016-08-13T00:52:50.292Z,0
2016-08-13T00:53:49.782Z,0
2016-08-13T00:54:50.192Z,0
2016-08-13T00:55:48.939Z,0
2016-08-13T00:56:51.099Z,0
2016-08-13T00:57:51.026Z,0
2016-08-13T00:58:50.205Z,0
2016-08-13T00:59:48.858Z,0
2016-08-13T01:00:48.348Z,0
2016-08-13T01:01:51.198Z,0
2016-08-13T01:02:50.582Z,0
2016-08-13T01:03:49.719Z,0
2016-08-13T01:04:50.343Z,0
2016-08-13T01:05:50.733Z,0
2016-08-13T01:06:50.365Z,0
2016-08-13T01:07:50.320Z,0
2016-08-13T01:08:49.809Z,0
2016-08-13T01:09:50.362Z,0
2016-08-13T01:10:50.414Z,0
2016-08-13T01:11:49.959Z,0
2016-08-13T01:12:49.855Z,0
2016-08-13T01:13:50.718Z,0
2016-08-13T01:14:51.344Z,0
2016-08-13T01:15:50.529Z,0
2016-08-13T01:16:51.251Z,0
2016-08-13T01:17:50.376Z,0
2016-08-13T01:18:51.213Z,0
2016-08-13T01:19:48.976Z,0
2016-08-13T01:20:51.156Z,0
2016-08-13T01:21:49.808Z,0
2016-08-13T01:22:51.120Z,0
2016-08-13T01:23:50.001Z,0
2016-08-13T01:24:51.333Z,0
2016-08-13T01:25:50.486Z,0
2016-08-13T01:26:49.705Z,0
2016-08-13T01:27:49.192Z,0
2016-08-13T01:28:51.216Z,0
2016-08-13T01:29:48.385Z,0
2016-08-13T01:30:49.210Z,0
2016-08-13T01:31:51.214Z,0
2016-08-13T01:32:49.837Z,0
2016-08-13T01:33:50.442Z,0
2016-08-13T01:34:49.817Z,0
2016-08-13T01:35:51.340Z,0
2016-08-13T01:36:50.697Z,0
2016-08-13T01:37:50.471Z,0
2016-08-13T01:38:50.721Z,0
2016-08-13T01:39:51.374Z,0
2016-08-13T01:40:50.619Z,0
2016-08-13T01:41:51.388Z,0
2016-08-13T01:42:49.299Z,0
2016-08-13T01:43:50.760Z,0
2016-08-13T01:44:50.762Z,0
2016-08-13T01:45:49.269Z,0
2016-08-13T01:46:50.009Z,0
2016-08-13T01:47:49.803Z,0
2016-08-13T01:48:50.513Z,0
2016-08-13T01:49:50.563Z,0
2016-08-13T01:50:50.555Z,0
2016-08-13T01:51:49.846Z,0
2016-08-13T01:52:50.683Z,0
2016-08-13T01:53:49.908Z,0
2016-08-13T01:54:49.969Z,0
2016-08-13T01:55:49.899Z,0
2016-08-13T01:56:49.343Z,0
2016-08-13T01:57:51.422Z,0
2016-08-13T01:58:49.296Z,0
2016-08-13T01:59:50.625Z,0
2016-08-13T02:00:50.690Z,0
2016-08-13T02:01:50.721Z,0
2016-08-13T02:02:50.630Z,0
2016-08-13T02:03:50.743Z,0
2016-08-13T02:04:50.068Z,0
2016-08-13T02:05:50.633Z,0
2016-08-13T02:06:50.656Z,0
2016-08-13T02:07:50.843Z,0
2016-08-13T02:08:50.652Z,0
2016-08-13T02:09:50.750Z,0
2016-08-13T02:10:50.157Z,0
2016-08-13T02:11:50.656Z,0
2016-08-13T02:12:50.662Z,0
2016-08-13T02:13:50.895Z,0
2016-08-13T02:14:50.016Z,0
2016-08-13T02:15:51.455Z,0
2016-08-13T02:16:49.290Z,0
2016-08-13T02:17:50.246Z,0
2016-08-13T02:18:51.586Z,0
2016-08-13T02:19:49.378Z,0
2016-08-13T02:20:50.819Z,0
2016-08-13T02:21:50.154Z,0
2016-08-13T02:22:50.030Z,0
2016-08-13T02:23:50.813Z,0
2016-08-13T02:24:50.870Z,0
2016-08-13T02:25:50.855Z,0
2016-08-13T02:26:50.959Z,0
2016-08-13T02:27:51.541Z,0
2016-08-13T02:28:51.011Z,0
2016-08-13T02:29:51.512Z,0
2016-08-13T02:30:50.893Z,0
2016-08-13T02:31:51.690Z,0
2016-08-13T02:32:50.908Z,0
2016-08-13T02:33:49.375Z,0
2016-08-13T02:34:50.852Z,0
2016-08-13T02:35:50.211Z,0
2016-08-13T02:36:49.635Z,0
2016-08-13T02:37:50.110Z,0
2016-08-13T02:38:50.262Z,0
2016-08-13T02:39:51.036Z,0
2016-08-13T02:40:51.666Z,0
2016-08-13T02:41:50.152Z,0
2016-08-13T02:42:49.619Z,0
2016-08-13T02:43:49.437Z,0
2016-08-13T02:44:50.918Z,0
2016-08-13T02:45:50.225Z,0
2016-08-13T02:46:50.278Z,0
2016-08-13T02:47:50.234Z,0
2016-08-13T02:48:49.699Z,0
2016-08-13T02:49:51.700Z,0
2016-08-13T02:50:50.944Z,0
2016-08-13T02:51:51.047Z,0
2016-08-13T02:52:48.846Z,0
2016-08-13T02:53:51.665Z,0
2016-08-13T02:54:50.229Z,0
2016-08-13T02:55:51.781Z,0
2016-08-13T02:56:51.692Z,0
2016-08-13T02:57:50.338Z,0
2016-08-13T02:58:50.232Z,0
2016-08-13T02:59:49.700Z,0
2016-08-13T03:00:50.397Z,0
2016-08-13T03:01:51.107Z,0
2016-08-13T03:02:49.547Z,0
2016-08-13T03:03:50.583Z,0
2016-08-13T03:04:51.860Z,0
2016-08-13T03:05:51.048Z,0
2016-08-13T03:06:50.337Z,0
2016-08-13T03:07:49.648Z,0
2016-08-13T03:08:51.828Z,0
2016-08-13T03:09:51.219Z,0
2016-08-13T03:10:49.592Z,0
2016-08-13T03:11:50.320Z,0
2016-08-13T03:12:49.613Z,0
2016-08-13T03:13:51.777Z,0
2016-08-13T03:14:49.637Z,0
2016-08-13T03:15:51.212Z,0
2016-08-13T03:16:51.062Z,0
2016-08-13T03:17:49.628Z,0
2016-08-13T03:18:50.349Z,0
2016-08-13T03:19:51.107Z,0
2016-08-13T03:20:51.240Z,0
2016-08-13T03:21:51.103Z,0
2016-08-13T03:22:50.387Z,0
2016-08-13T03:23:52.124Z,0
2016-08-13T03:24:50.623Z,0
2016-08-13T03:25:52.052Z,0
2016-08-13T03:26:51.154Z,0
2016-08-13T03:27:51.859Z,0
2016-08-13T03:28:51.324Z,0
2016-08-13T03:29:51.295Z,0
2016-08-13T03:30:50.482Z,0
2016-08-13T03:31:51.253Z,0
2016-08-13T03:32:51.864Z,0
2016-08-13T03:33:50.712Z,0
2016-08-13T03:34:50.432Z,0
2016-08-13T03:35:51.293Z,0
2016-08-13T03:36:49.749Z,0
2016-08-13T03:37:50.512Z,0
2016-08-13T03:38:51.262Z,0
2016-08-13T03:39:50.530Z,0
2016-08-13T03:40:50.486Z,0
2016-08-13T03:41:51.320Z,0
2016-08-13T03:42:51.413Z,0
2016-08-13T03:43:50.489Z,0
2016-08-13T03:44:51.358Z,0
2016-08-13T03:45:52.001Z,0
2016-08-13T03:46:51.448Z,0
2016-08-13T03:47:51.263Z,0
2016-08-13T03:48:51.398Z,0
2016-08-13T03:49:51.373Z,0
2016-08-13T03:50:50.559Z,0
2016-08-13T03:51:51.453Z,0
2016-08-13T03:52:51.317Z,0
2016-08-13T03:53:50.673Z,0
2016-08-13T03:54:51.344Z,0
2016-08-13T03:55:51.370Z,0
2016-08-13T03:56:51.425Z,0
2016-08-13T03:57:52.114Z,0
2016-08-13T03:58:51.501Z,0
2016-08-13T03:59:51.556Z,0
2016-08-13T04:00:50.597Z,0
2016-08-13T04:01:51.299Z,0
2016-08-13T04:02:50.724Z,0
2016-08-13T04:03:50.648Z,0
2016-08-13T04:04:51.436Z,0
2016-08-13T04:05:49.952Z,0
2016-08-13T04:06:51.362Z,0
2016-08-13T04:07:52.250Z,0
2016-08-13T04:08:51.381Z,0
2016-08-13T04:09:50.634Z,0
2016-08-13T04:10:51.167Z,0
2016-08-13T04:11:49.338Z,0
2016-08-13T04:12:50.656Z,0
2016-08-13T04:13:51.632Z,0
2016-08-13T04:14:52.202Z,0
2016-08-13T04:15:49.281Z,0
2016-08-13T04:16:50.694Z,0
2016-08-13T04:17:50.684Z,0
2016-08-13T04:18:50.697Z,0
2016-08-13T04:19:51.480Z,0
2016-08-13T04:20:50.824Z,0
2016-08-13T04:21:51.494Z,0
2016-08-13T04:22:51.421Z,5
2016-08-13T04:23:50.223Z,5
2016-08-13T04:24:50.055Z,5
2016-08-13T04:25:51.442Z,5
2016-08-13T04:26:51.591Z,5
2016-08-13T04:27:50.063Z,5
2016-08-13T04:28:51.788Z,5
2016-08-13T04:29:50.872Z,5
2016-08-13T04:30:50.814Z,5
2016-08-13T04:31:50.834Z,5
2016-08-13T04:32:51.583Z,5
2016-08-13T04:33:50.800Z,5
2016-08-13T04:34:51.499Z,10
2016-08-13T04:35:50.899Z,10
2016-08-13T04:36:50.831Z,10
2016-08-13T04:37:50.162Z,10
2016-08-13T04:38:50.963Z,10
2016-08-13T04:39:50.864Z,10
2016-08-13T04:40:50.217Z,10
2016-08-13T04:41:50.944Z,10
2016-08-13T04:42:51.693Z,10
2016-08-13T04:43:51.567Z,15
2016-08-13T04:44:50.894Z,15
2016-08-13T04:45:51.630Z,15
2016-08-13T04:46:50.903Z,15
2016-08-13T04:47:50.880Z,15
2016-08-13T04:48:50.910Z,15
2016-08-13T04:49:52.320Z,15
2016-08-13T04:50:52.461Z,15
2016-08-13T04:51:52.403Z,15
2016-08-13T04:52:51.009Z,15
2016-08-13T04:53:52.313Z,15
2016-08-13T04:54:51.632Z,20
2016-08-13T04:55:51.796Z,20
2016-08-13T04:56:50.946Z,25
2016-08-13T04:57:51.689Z,25
2016-08-13T04:58:51.636Z,25
2016-08-13T04:59:50.324Z,30
2016-08-13T05:00:50.935Z,30
2016-08-13T05:01:51.059Z,60
2016-08-13T05:02:50.291Z,105
2016-08-13T05:03:51.011Z,130
2016-08-13T05:04:50.967Z,150
2016-08-13T05:05:52.392Z,155
2016-08-13T05:06:51.040Z,135
2016-08-13T05:07:51.748Z,140
2016-08-13T05:08:50.990Z,130
2016-08-13T05:09:50.288Z,100
2016-08-13T05:10:51.712Z,80
2016-08-13T05:11:51.713Z,105
2016-08-13T05:12:51.726Z,135
2016-08-13T05:13:51.076Z,140
2016-08-13T05:14:51.056Z,170
2016-08-13T05:15:50.403Z,180
2016-08-13T05:16:52.530Z,195
2016-08-13T05:17:51.881Z,215
2016-08-13T05:18:51.907Z,235
2016-08-13T05:19:50.413Z,230
2016-08-13T05:20:51.170Z,225
2016-08-13T05:21:50.375Z,235
2016-08-13T05:22:51.959Z,245
2016-08-13T05:23:51.263Z,235
2016-08-13T05:24:50.476Z,230
2016-08-13T05:25:51.317Z,235
2016-08-13T05:26:51.926Z,245
2016-08-13T05:27:52.645Z,250
2016-08-13T05:28:51.137Z,245
2016-08-13T05:29:51.164Z,230
2016-08-13T05:30:51.895Z,225
2016-08-13T05:31:51.868Z,225
2016-08-13T05:32:50.458Z,245
2016-08-13T05:33:51.175Z,195
2016-08-13T05:34:52.035Z,195
2016-08-13T05:35:51.897Z,165
2016-08-13T05:36:51.197Z,235
2016-08-13T05:37:52.622Z,150
2016-08-13T05:38:51.974Z,170
2016-08-13T05:39:51.217Z,105
2016-08-13T05:40:51.937Z,185
2016-08-13T05:41:51.237Z,95
2016-08-13T05:42:51.241Z,90
2016-08-13T05:43:51.326Z,80
2016-08-13T05:44:52.092Z,55
2016-08-13T05:45:52.784Z,50
2016-08-13T05:46:50.569Z,40
2016-08-13T05:47:51.277Z,40
2016-08-13T05:48:51.277Z,35
2016-08-13T05:49:51.996Z,25
2016-08-13T05:50:52.019Z,25
2016-08-13T05:51:51.304Z,25
2016-08-13T05:52:52.729Z,25
2016-08-13T05:53:50.605Z,25
2016-08-13T05:54:51.322Z,20
2016-08-13T05:55:51.327Z,20
2016-08-13T05:56:52.752Z,20
2016-08-13T05:57:51.350Z,20
2016-08-13T05:58:51.360Z,20
2016-08-13T05:59:52.765Z,25
2016-08-13T06:00:52.063Z,25
2016-08-13T06:01:51.383Z,25
2016-08-13T06:02:50.713Z,25
2016-08-13T06:03:52.102Z,25
2016-08-13T06:04:50.675Z,25
2016-08-13T06:05:50.679Z,25
2016-08-13T06:06:52.100Z,25
2016-08-13T06:07:52.916Z,25
2016-08-13T06:08:52.164Z,30
2016-08-13T06:09:49.998Z,30
2016-08-13T06:10:51.422Z,30
2016-08-13T06:11:52.128Z,35
2016-08-13T06:12:51.481Z,30
2016-08-13T06:13:52.194Z,30
2016-08-13T06:14:51.439Z,30
2016-08-13T06:15:50.039Z,30
2016-08-13T06:16:52.936Z,30
2016-08-13T06:17:52.408Z,30
2016-08-13T06:18:52.182Z,30
2016-08-13T06:19:51.473Z,25
2016-08-13T06:20:51.488Z,25
2016-08-13T06:21:52.197Z,30
2016-08-13T06:22:52.207Z,30
2016-08-13T06:23:52.920Z,30
2016-08-13T06:24:53.006Z,35
2016-08-13T06:25:51.521Z,30
2016-08-13T06:26:53.099Z,35
2016-08-13T06:27:52.288Z,40
2016-08-13T06:28:53.117Z,35
2016-08-13T06:29:50.993Z,50
2016-08-13T06:30:51.580Z,55
2016-08-13T06:31:51.618Z,55
2016-08-13T06:32:52.265Z,60
2016-08-13T06:33:52.263Z,55
2016-08-13T06:34:50.853Z,55
2016-08-13T06:35:52.280Z,55
2016-08-13T06:36:51.624Z,60
2016-08-13T06:37:51.581Z,70
2016-08-13T06:38:52.360Z,75
2016-08-13T06:39:52.308Z,80
2016-08-13T06:40:51.602Z,120
2016-08-13T06:41:50.909Z,145
2016-08-13T06:42:51.612Z,175
2016-08-13T06:43:52.337Z,290
2016-08-13T06:44:51.625Z,175
2016-08-13T06:45:50.926Z,290
2016-08-13T06:46:50.933Z,660
2016-08-13T06:47:53.060Z,825
2016-08-13T06:48:50.950Z,805
2016-08-13T06:49:51.662Z,860
2016-08-13T06:50:51.661Z,795
2016-08-13T06:51:52.383Z,665
2016-08-13T06:52:51.681Z,865
2016-08-13T06:53:52.401Z,915
2016-08-13T06:54:50.986Z,890
2016-08-13T06:55:51.049Z,805
2016-08-13T06:56:52.422Z,725
2016-08-13T06:57:51.022Z,855
2016-08-13T06:58:51.732Z,870
2016-08-13T06:59:52.440Z,895
2016-08-13T07:00:53.166Z,835
2016-08-13T07:01:52.457Z,780
2016-08-13T07:02:52.467Z,665
2016-08-13T07:03:52.486Z,850
2016-08-13T07:04:52.608Z,1000
2016-08-13T07:05:52.496Z,1030
2016-08-13T07:06:51.795Z,1035
2016-08-13T07:07:52.618Z,1050
2016-08-13T07:08:52.631Z,1055
2016-08-13T07:09:52.572Z,1020
2016-08-13T07:10:51.968Z,1020
2016-08-13T07:11:52.690Z,1075
2016-08-13T07:12:51.901Z,1150
2016-08-13T07:13:51.936Z,1180
2016-08-13T07:14:52.618Z,1195
2016-08-13T07:15:52.000Z,1180
2016-08-13T07:16:52.733Z,1215
2016-08-13T07:17:52.067Z,1190
2016-08-13T07:18:52.653Z,1185
2016-08-13T07:19:53.514Z,1185
2016-08-13T07:20:52.660Z,945
2016-08-13T07:21:53.346Z,455
2016-08-13T07:22:51.333Z,210
2016-08-13T07:23:52.656Z,165
2016-08-13T07:24:52.696Z,145
2016-08-13T07:25:52.782Z,130
2016-08-13T07:26:52.754Z,120
2016-08-13T07:27:51.986Z,120
2016-08-13T07:28:52.840Z,115
2016-08-13T07:29:53.462Z,120
2016-08-13T07:30:52.124Z,120
2016-08-13T07:31:52.732Z,115
2016-08-13T07:32:53.481Z,115
2016-08-13T07:33:52.088Z,110
2016-08-13T07:34:53.486Z,115
2016-08-13T07:35:52.053Z,115
2016-08-13T07:36:52.933Z,110
2016-08-13T07:37:53.498Z,110
2016-08-13T07:38:52.784Z,115
2016-08-13T07:39:51.509Z,115
2016-08-13T07:40:52.212Z,115
2016-08-13T07:41:53.698Z,115
2016-08-13T07:42:53.566Z,115
2016-08-13T07:43:51.464Z,115
2016-08-13T07:44:52.893Z,115
2016-08-13T07:45:52.144Z,115
2016-08-13T07:46:51.535Z,110
2016-08-13T07:47:51.435Z,110
2016-08-13T07:48:53.565Z,110
2016-08-13T07:49:52.162Z,110
2016-08-13T07:50:50.743Z,115
2016-08-13T07:51:52.883Z,110
2016-08-13T07:52:52.884Z,110
2016-08-13T07:53:52.181Z,105
2016-08-13T07:54:51.570Z,110
2016-08-13T07:55:52.207Z,105
2016-08-13T07:56:52.918Z,105
2016-08-13T07:57:52.913Z,105
2016-08-13T07:58:52.217Z,115
2016-08-13T07:59:52.938Z,115
2016-08-13T08:00:52.247Z,120
2016-08-13T08:01:52.941Z,115
2016-08-13T08:02:52.956Z,115
2016-08-13T08:03:52.250Z,120
2016-08-13T08:04:52.965Z,115
2016-08-13T08:05:52.977Z,120
2016-08-13T08:06:53.685Z,120
2016-08-13T08:07:53.704Z,130
2016-08-13T08:08:52.296Z,130
2016-08-13T08:09:51.590Z,120
2016-08-13T08:10:52.398Z,125
2016-08-13T08:11:52.315Z,130
2016-08-13T08:12:53.732Z,140
2016-08-13T08:13:51.610Z,145
2016-08-13T08:14:53.744Z,145
2016-08-13T08:15:52.338Z,140
2016-08-13T08:16:52.366Z,130
2016-08-13T08:17:51.687Z,130
2016-08-13T08:18:53.915Z,140
2016-08-13T08:19:53.077Z,140
2016-08-13T08:20:53.072Z,130
2016-08-13T08:21:52.370Z,135
2016-08-13T08:22:51.671Z,135
2016-08-13T08:23:51.677Z,135
2016-08-13T08:24:53.808Z,130
2016-08-13T08:25:52.422Z,130
2016-08-13T08:26:52.429Z,120
2016-08-13T08:27:53.182Z,115
2016-08-13T08:28:53.839Z,115
2016-08-13T08:29:53.145Z,110
2016-08-13T08:30:53.141Z,105
2016-08-13T08:31:53.148Z,105
2016-08-13T08:32:51.740Z,100
2016-08-13T08:37:08.716Z,90
2016-08-13T08:37:38.963Z,85
2016-08-13T08:38:39.732Z,85
2016-08-13T08:39:38.995Z,85
2016-08-13T08:40:38.984Z,85
2016-08-13T08:41:38.990Z,90
2016-08-13T08:42:40.817Z,95
2016-08-13T08:43:37.638Z,100
2016-08-13T08:44:39.775Z,110
2016-08-13T08:45:40.432Z,125
2016-08-13T08:46:39.026Z,135
2016-08-13T08:47:39.743Z,125
2016-08-13T08:48:39.752Z,125
2016-08-13T08:49:39.795Z,105
2016-08-13T08:50:38.348Z,110
2016-08-13T08:51:37.640Z,115
2016-08-13T08:52:40.481Z,125
2016-08-13T08:53:39.924Z,155
2016-08-13T08:54:39.078Z,145
2016-08-13T08:55:39.075Z,150
2016-08-13T08:56:39.794Z,140
2016-08-13T08:57:40.504Z,135
2016-08-13T08:58:38.397Z,145
2016-08-13T08:59:39.110Z,160
2016-08-13T09:00:38.416Z,145
2016-08-13T09:01:39.827Z,165
2016-08-13T09:02:40.550Z,145
2016-08-13T09:03:39.142Z,145
2016-08-13T09:04:40.767Z,145
2016-08-13T09:05:39.194Z,135
2016-08-13T09:06:40.383Z,160
2016-08-13T09:07:39.165Z,140
2016-08-13T09:08:38.464Z,125
2016-08-13T09:09:39.181Z,105
2016-08-13T09:10:39.175Z,85
2016-08-13T09:11:37.876Z,70
2016-08-13T09:12:38.489Z,65
2016-08-13T09:13:39.359Z,65
2016-08-13T09:14:39.263Z,65
2016-08-13T09:15:40.234Z,90
2016-08-13T09:16:38.511Z,130
2016-08-13T09:17:39.723Z,120
2016-08-13T09:18:39.944Z,100
2016-08-13T09:19:39.282Z,125
2016-08-13T09:20:39.960Z,125
2016-08-13T09:21:39.258Z,120
2016-08-13T09:22:39.974Z,130
2016-08-13T09:23:38.562Z,120
2016-08-13T09:24:38.571Z,115
2016-08-13T09:25:39.992Z,95
2016-08-13T09:26:40.242Z,70
2016-08-13T09:27:39.301Z,70
2016-08-13T09:28:39.097Z,80
2016-08-13T09:29:38.603Z,100
2016-08-13T09:30:39.322Z,95
2016-08-13T09:31:40.030Z,95
2016-08-13T09:32:39.337Z,95
2016-08-13T09:33:39.337Z,105
2016-08-13T09:34:39.352Z,105
2016-08-13T09:35:40.064Z,130
2016-08-13T09:36:40.770Z,135
2016-08-13T09:37:40.780Z,135
2016-08-13T09:38:40.076Z,120
2016-08-13T09:39:38.229Z,115
2016-08-13T09:40:38.678Z,130
2016-08-13T09:41:38.688Z,115
2016-08-13T09:42:40.815Z,100
2016-08-13T09:43:39.416Z,105
2016-08-13T09:44:39.408Z,100
2016-08-13T09:45:39.429Z,70
2016-08-13T09:46:40.138Z,70
2016-08-13T09:47:39.430Z,70
2016-08-13T09:48:38.731Z,80
2016-08-13T09:49:39.444Z,80
2016-08-13T09:50:41.407Z,85
2016-08-13T09:51:40.169Z,110
2016-08-13T09:52:40.266Z,100
2016-08-13T09:53:40.889Z,135
2016-08-13T09:54:40.180Z,120
2016-08-13T09:55:40.194Z,80
2016-08-13T09:56:39.545Z,80
2016-08-13T09:57:39.505Z,70
2016-08-13T09:58:39.504Z,70
2016-08-13T09:59:41.592Z,80
2016-08-13T10:00:39.523Z,95
2016-08-13T10:01:41.231Z,80
2016-08-13T10:02:39.531Z,70
2016-08-13T10:03:38.127Z,70
2016-08-13T10:04:40.262Z,75
2016-08-13T10:05:39.552Z,75
2016-08-13T10:06:39.554Z,70
2016-08-13T10:07:40.284Z,100
2016-08-13T10:08:39.574Z,110
2016-08-13T10:09:39.575Z,115
2016-08-13T10:10:41.348Z,120
2016-08-13T10:11:41.049Z,130
2016-08-13T10:12:43.565Z,135
2016-08-13T10:13:41.064Z,130
2016-08-13T10:14:39.705Z,145
2016-08-13T10:15:38.250Z,125
2016-08-13T10:16:40.334Z,105
2016-08-13T10:17:38.922Z,105
2016-08-13T10:18:39.026Z,110
2016-08-13T10:19:39.708Z,95
2016-08-13T10:20:39.656Z,90
2016-08-13T10:21:40.803Z,105
2016-08-13T10:22:40.385Z,115
2016-08-13T10:23:40.619Z,90
2016-08-13T10:24:40.393Z,80
2016-08-13T10:25:41.585Z,80
2016-08-13T10:26:40.389Z,70
2016-08-13T10:27:40.405Z,75
2016-08-13T10:28:40.047Z,95
2016-08-13T10:29:39.701Z,110
2016-08-13T10:30:40.420Z,105
2016-08-13T10:31:39.716Z,110
2016-08-13T10:32:40.632Z,110
2016-08-13T10:33:40.440Z,105
2016-08-13T10:34:39.741Z,125
2016-08-13T10:35:41.157Z,110
2016-08-13T10:36:43.368Z,115
2016-08-13T10:37:40.473Z,120
2016-08-13T10:38:40.477Z,120
2016-08-13T10:39:40.479Z,120
2016-08-13T10:40:39.125Z,115
2016-08-13T10:41:39.786Z,105
2016-08-13T10:42:41.205Z,105
2016-08-13T10:43:41.015Z,110
2016-08-13T10:44:39.101Z,85
2016-08-13T10:45:41.988Z,85
2016-08-13T10:46:39.827Z,85
2016-08-13T10:47:41.539Z,80
2016-08-13T10:48:40.538Z,80
2016-08-13T10:49:41.255Z,85
2016-08-13T10:50:39.138Z,85
2016-08-13T10:51:40.568Z,90
2016-08-13T10:52:39.875Z,95
2016-08-13T10:53:39.918Z,75
2016-08-13T10:54:39.272Z,75
2016-08-13T10:55:40.585Z,80
2016-08-13T10:56:42.407Z,75
2016-08-13T10:57:41.320Z,75
2016-08-13T10:58:41.312Z,80
2016-08-13T10:59:40.613Z,85
2016-08-13T11:00:40.626Z,70
2016-08-13T11:01:39.225Z,65
2016-08-13T11:02:40.644Z,70
2016-08-13T11:03:41.371Z,75
2016-08-13T11:04:39.946Z,85
2016-08-13T11:05:40.656Z,75
2016-08-13T11:06:40.654Z,80
2016-08-13T11:07:41.672Z,75
2016-08-13T11:08:39.257Z,75
2016-08-13T11:09:40.470Z,75
2016-08-13T11:10:40.683Z,70
2016-08-13T11:11:39.993Z,85
2016-08-13T11:12:40.041Z,85
2016-08-13T11:14:06.983Z,85
2016-08-13T11:14:40.710Z,100
2016-08-13T11:15:41.473Z,95
2016-08-13T11:16:41.356Z,85
2016-08-13T11:17:38.616Z,85
2016-08-13T11:18:41.029Z,100
2016-08-13T11:19:41.600Z,85
2016-08-13T11:20:40.700Z,80
2016-08-13T11:21:40.763Z,80
2016-08-13T11:22:40.058Z,85
2016-08-13T11:23:40.781Z,80
2016-08-13T11:24:40.784Z,85
2016-08-13T11:25:40.827Z,80
2016-08-13T11:26:39.428Z,75
2016-08-13T11:27:39.573Z,85
2016-08-13T11:28:41.513Z,75
2016-08-13T11:29:40.512Z,95
2016-08-13T11:30:40.813Z,80
2016-08-13T11:31:39.457Z,85
2016-08-13T11:32:41.639Z,80
2016-08-13T11:33:38.713Z,80
2016-08-13T11:34:40.141Z,80
2016-08-13T11:35:41.555Z,90
2016-08-13T11:36:39.440Z,80
2016-08-13T11:37:41.566Z,90
2016-08-13T11:38:40.518Z,95
2016-08-13T11:39:40.164Z,90
2016-08-13T11:40:40.879Z,75
2016-08-13T11:41:40.181Z,85
2016-08-13T11:42:38.942Z,85
2016-08-13T11:43:54.366Z,85
2016-08-13T11:44:39.594Z,75
2016-08-13T11:45:40.259Z,80
2016-08-13T11:46:40.214Z,75
2016-08-13T11:47:40.927Z,90
2016-08-13T11:48:40.242Z,90
2016-08-13T11:49:40.937Z,100
2016-08-13T11:50:40.958Z,85
2016-08-13T11:51:41.991Z,95
2016-08-13T11:52:40.255Z,95
2016-08-13T11:53:41.515Z,90
2016-08-13T11:54:40.271Z,80
2016-08-13T11:55:40.277Z,75
2016-08-13T11:56:40.284Z,80
2016-08-13T11:57:39.594Z,70
2016-08-13T11:58:41.709Z,70
2016-08-13T11:59:40.307Z,65
2016-08-13T12:00:40.335Z,65
2016-08-13T12:01:41.028Z,75
2016-08-13T12:02:42.326Z,80
2016-08-13T12:03:38.937Z,75
2016-08-13T12:04:41.201Z,80
2016-08-13T12:05:41.755Z,70
2016-08-13T12:06:40.349Z,60
2016-08-13T12:07:38.998Z,65
2016-08-13T12:08:40.362Z,70
2016-08-13T12:09:41.785Z,60
2016-08-13T12:10:41.083Z,60
2016-08-13T12:11:40.389Z,70
2016-08-13T12:12:40.433Z,60
2016-08-13T12:13:41.301Z,60
2016-08-13T12:14:40.455Z,65
2016-08-13T12:15:40.806Z,65
2016-08-13T12:16:40.423Z,65
2016-08-13T12:17:40.438Z,65
2016-08-13T12:18:40.426Z,65
2016-08-13T12:19:41.241Z,75
2016-08-13T12:20:39.033Z,65
2016-08-13T12:21:41.155Z,75
2016-08-13T12:22:41.211Z,70
2016-08-13T12:23:40.464Z,65
2016-08-13T12:24:40.834Z,70
2016-08-13T12:25:40.479Z,70
2016-08-13T12:26:43.179Z,65
2016-08-13T12:27:40.490Z,70
2016-08-13T12:28:41.959Z,70
2016-08-13T12:29:39.796Z,65
2016-08-13T12:30:40.513Z,65
2016-08-13T12:31:41.220Z,65
2016-08-13T12:32:41.252Z,65
2016-08-13T12:33:41.297Z,70
2016-08-13T12:34:42.896Z,80
2016-08-13T12:35:41.246Z,75
2016-08-13T12:36:41.268Z,85
2016-08-13T12:37:42.358Z,90
2016-08-13T12:38:39.857Z,90
2016-08-13T12:39:40.571Z,80
2016-08-13T12:40:40.573Z,85
2016-08-13T12:41:41.293Z,70
2016-08-13T12:42:40.588Z,70
2016-08-13T12:43:42.061Z,75
2016-08-13T12:44:40.601Z,80
2016-08-13T12:45:41.340Z,70
2016-08-13T12:46:40.614Z,75
2016-08-13T12:47:40.622Z,65
2016-08-13T12:48:41.866Z,65
2016-08-13T12:49:42.049Z,60
2016-08-13T12:50:40.644Z,60
2016-08-13T12:51:41.355Z,60
2016-08-13T12:52:39.947Z,65
2016-08-13T12:53:39.954Z,75
2016-08-13T12:54:41.388Z,75
2016-08-13T12:55:41.384Z,75
2016-08-13T12:56:40.683Z,75
2016-08-13T12:57:42.721Z,70
2016-08-13T12:58:40.708Z,70
2016-08-13T12:59:42.212Z,75
2016-08-13T13:00:40.001Z,65
2016-08-13T13:01:40.719Z,65
2016-08-13T13:02:42.130Z,60
2016-08-13T13:03:40.728Z,60
2016-08-13T13:04:40.737Z,65
2016-08-13T13:05:41.450Z,65
2016-08-13T13:06:40.041Z,65
2016-08-13T13:07:40.760Z,60
2016-08-13T13:08:42.975Z,55
2016-08-13T13:09:40.065Z,55
2016-08-13T13:10:41.129Z,55
2016-08-13T13:11:40.124Z,55
2016-08-13T13:12:40.089Z,60
2016-08-13T13:13:41.602Z,65
2016-08-13T13:14:41.559Z,60
2016-08-13T13:15:41.572Z,70
2016-08-13T13:16:40.815Z,65
2016-08-13T13:17:40.169Z,60
2016-08-13T13:18:40.831Z,65
2016-08-13T13:19:41.840Z,65
2016-08-13T13:20:42.254Z,60
2016-08-13T13:21:40.899Z,60
2016-08-13T13:22:41.563Z,60
2016-08-13T13:23:40.864Z,55
2016-08-13T13:24:43.181Z,55
2016-08-13T13:25:40.873Z,55
2016-08-13T13:26:41.604Z,55
2016-08-13T13:27:40.198Z,55
2016-08-13T13:28:40.197Z,55
2016-08-13T13:29:41.612Z,55
2016-08-13T13:30:42.328Z,55
2016-08-13T13:31:40.210Z,55
2016-08-13T13:32:42.536Z,50
2016-08-13T13:33:40.929Z,50
2016-08-13T13:34:42.364Z,55
2016-08-13T13:35:40.943Z,55
2016-08-13T13:36:40.250Z,50
2016-08-13T13:37:42.368Z,55
2016-08-13T13:38:40.977Z,55
2016-08-13T13:39:41.679Z,55
2016-08-13T13:40:40.974Z,55
2016-08-13T13:41:41.443Z,55
2016-08-13T13:42:41.001Z,55
2016-08-13T13:43:41.044Z,60
2016-08-13T13:44:40.303Z,60
2016-08-13T13:45:42.133Z,65
2016-08-13T13:46:40.327Z,60
2016-08-13T13:47:41.031Z,70
2016-08-13T13:48:41.733Z,60
2016-08-13T13:49:39.619Z,60
2016-08-13T13:50:41.044Z,60
2016-08-13T13:51:41.051Z,60
2016-08-13T13:52:40.464Z,60
2016-08-13T13:53:41.771Z,55
2016-08-13T13:54:42.179Z,60
2016-08-13T13:55:40.370Z,60
2016-08-13T13:56:41.790Z,55
2016-08-13T13:57:41.089Z,55
2016-08-13T13:58:41.106Z,55
2016-08-13T13:59:41.873Z,60
2016-08-13T14:00:41.817Z,55
2016-08-13T14:01:41.825Z,55
2016-08-13T14:02:41.126Z,55
2016-08-13T14:03:43.813Z,55
2016-08-13T14:04:41.135Z,55
2016-08-13T14:05:41.944Z,55
2016-08-13T14:06:42.565Z,60
2016-08-13T14:07:39.743Z,60
2016-08-13T14:08:41.178Z,60
2016-08-13T14:09:41.170Z,55
2016-08-13T14:10:41.190Z,55
2016-08-13T14:11:41.890Z,55
2016-08-13T14:12:41.190Z,55
2016-08-13T14:13:41.956Z,55
2016-08-13T14:14:42.724Z,50
2016-08-13T14:15:42.688Z,55
2016-08-13T14:16:41.567Z,50
2016-08-13T14:17:41.229Z,50
2016-08-13T14:18:41.284Z,55
2016-08-13T14:19:41.301Z,50